sensor_id;sensor_type;location;lat;lon;timestamp;noise_LAeq;noise_LA_min;noise_LA_max;noise_LA01;noise_LA95
69620;Laerm;57654;51.434;5.984;2022-12-10T00:00:10;33.92;30.26;41.24;;
69620;Laerm;57654;51.434;5.984;2022-12-10T00:00:21;33.52;30.69;37.60;;
69620;Laerm;57654;51.434;5.984;2022-12-10T00:00:31;33.50;30.55;39.82;;
69620;Laerm;57654;51.434;5.984;2022-12-10T00:00:41;33.80;30.27;39.20;;
69620;Laerm;57654;51.434;5.984;2022-12-10T00:00:52;33.96;30.73;39.14;;
69620;Laerm;57654;51.434;5.984;2022-12-10T00:01:06;33.87;30.81;40.71;;
69620;Laerm;57654;51.434;5.984;2022-12-10T00:01:17;34.76;31.10;39.07;;
69620;Laerm;57654;51.434;5.984;2022-12-10T00:01:28;40.07;32.92;48.60;;
69620;Laerm;57654;51.434;5.984;2022-12-10T00:01:39;51.24;42.43;54.68;;
69620;Laerm;57654;51.434;5.984;2022-12-10T00:01:50;36.62;31.82;44.93;;
69620;Laerm;57654;51.434;5.984;2022-12-10T00:02:01;33.76;30.59;39.29;;
69620;Laerm;57654;51.434;5.984;2022-12-10T00:02:11;33.72;29.83;40.88;;
69620;Laerm;57654;51.434;5.984;2022-12-10T00:02:21;33.60;30.39;37.68;;
69620;Laerm;57654;51.434;5.984;2022-12-10T00:02:31;33.80;30.37;39.30;;
69620;Laerm;57654;51.434;5.984;2022-12-10T00:02:42;33.48;30.58;38.50;;
69620;Laerm;57654;51.434;5.984;2022-12-10T00:02:52;33.86;30.67;38.74;;
69620;Laerm;57654;51.434;5.984;2022-12-10T00:03:02;34.08;31.35;42.70;;
69620;Laerm;57654;51.434;5.984;2022-12-10T00:03:13;33.56;30.41;37.88;;
69620;Laerm;57654;51.434;5.984;2022-12-10T00:03:23;33.59;29.75;39.31;;
69620;Laerm;57654;51.434;5.984;2022-12-10T00:03:33;33.61;30.35;38.55;;
69620;Laerm;57654;51.434;5.984;2022-12-10T00:03:44;33.87;30.58;38.59;;
69620;Laerm;57654;51.434;5.984;2022-12-10T00:03:55;33.75;30.97;37.93;;
69620;Laerm;57654;51.434;5.984;2022-12-10T00:04:05;33.72;30.58;40.18;;
69620;Laerm;57654;51.434;5.984;2022-12-10T00:04:16;34.19;30.77;37.76;;
69620;Laerm;57654;51.434;5.984;2022-12-10T00:04:26;34.06;30.91;38.28;;
69620;Laerm;57654;51.434;5.984;2022-12-10T00:04:37;33.91;30.61;41.09;;
69620;Laerm;57654;51.434;5.984;2022-12-10T00:04:47;34.02;31.15;38.79;;
69620;Laerm;57654;51.434;5.984;2022-12-10T00:04:57;34.20;30.64;43.26;;
69620;Laerm;57654;51.434;5.984;2022-12-10T00:05:07;33.76;30.81;41.06;;
69620;Laerm;57654;51.434;5.984;2022-12-10T00:05:18;33.88;30.99;37.46;;
69620;Laerm;57654;51.434;5.984;2022-12-10T00:05:28;33.28;30.34;37.42;;
69620;Laerm;57654;51.434;5.984;2022-12-10T00:05:38;33.17;29.68;40.19;;
69620;Laerm;57654;51.434;5.984;2022-12-10T00:05:48;33.37;30.15;40.96;;
69620;Laerm;57654;51.434;5.984;2022-12-10T00:06:00;33.34;30.45;39.74;;
69620;Laerm;57654;51.434;5.984;2022-12-10T00:06:11;33.37;29.83;39.73;;
69620;Laerm;57654;51.434;5.984;2022-12-10T00:06:23;33.25;30.26;39.43;;
69620;Laerm;57654;51.434;5.984;2022-12-10T00:06:34;33.72;30.31;44.96;;
69620;Laerm;57654;51.434;5.984;2022-12-10T00:06:45;33.42;30.57;40.51;;
69620;Laerm;57654;51.434;5.984;2022-12-10T00:06:55;33.39;30.33;42.96;;
69620;Laerm;57654;51.434;5.984;2022-12-10T00:07:06;33.22;30.45;39.64;;
69620;Laerm;57654;51.434;5.984;2022-12-10T00:07:16;33.36;30.70;38.89;;
69620;Laerm;57654;51.434;5.984;2022-12-10T00:07:26;33.34;30.63;37.23;;
69620;Laerm;57654;51.434;5.984;2022-12-10T00:07:36;33.52;30.63;39.00;;
69620;Laerm;57654;51.434;5.984;2022-12-10T00:07:47;33.45;30.49;41.20;;
69620;Laerm;57654;51.434;5.984;2022-12-10T00:07:57;33.29;30.60;41.76;;
69620;Laerm;57654;51.434;5.984;2022-12-10T00:08:07;33.43;30.61;40.56;;
69620;Laerm;57654;51.434;5.984;2022-12-10T00:08:17;33.09;30.56;37.34;;
69620;Laerm;57654;51.434;5.984;2022-12-10T00:08:27;33.45;30.52;41.76;;
69620;Laerm;57654;51.434;5.984;2022-12-10T00:08:38;33.42;29.77;37.58;;
69620;Laerm;57654;51.434;5.984;2022-12-10T00:08:48;33.66;30.26;43.96;;
69620;Laerm;57654;51.434;5.984;2022-12-10T00:08:59;33.06;30.52;37.22;;
69620;Laerm;57654;51.434;5.984;2022-12-10T00:09:11;33.20;30.27;38.66;;
69620;Laerm;57654;51.434;5.984;2022-12-10T00:09:22;33.42;29.84;42.95;;
69620;Laerm;57654;51.434;5.984;2022-12-10T00:09:32;32.87;29.86;38.31;;
69620;Laerm;57654;51.434;5.984;2022-12-10T00:09:43;32.76;30.02;37.81;;
69620;Laerm;57654;51.434;5.984;2022-12-10T00:09:53;32.70;30.22;38.88;;
69620;Laerm;57654;51.434;5.984;2022-12-10T00:10:03;32.84;30.24;38.49;;
69620;Laerm;57654;51.434;5.984;2022-12-10T00:10:14;32.94;30.05;38.50;;
69620;Laerm;57654;51.434;5.984;2022-12-10T00:10:24;33.71;29.89;44.56;;
69620;Laerm;57654;51.434;5.984;2022-12-10T00:10:38;33.19;29.97;38.40;;
69620;Laerm;57654;51.434;5.984;2022-12-10T00:10:48;33.13;30.32;38.97;;
69620;Laerm;57654;51.434;5.984;2022-12-10T00:10:59;32.87;30.34;38.22;;
69620;Laerm;57654;51.434;5.984;2022-12-10T00:11:10;32.84;30.47;37.93;;
69620;Laerm;57654;51.434;5.984;2022-12-10T00:11:21;32.65;30.05;37.45;;
69620;Laerm;57654;51.434;5.984;2022-12-10T00:11:32;32.71;29.81;36.73;;
69620;Laerm;57654;51.434;5.984;2022-12-10T00:11:42;34.50;30.16;50.15;;
69620;Laerm;57654;51.434;5.984;2022-12-10T00:11:53;32.51;30.10;37.27;;
69620;Laerm;57654;51.434;5.984;2022-12-10T00:12:03;32.43;29.80;37.71;;
69620;Laerm;57654;51.434;5.984;2022-12-10T00:12:13;33.00;30.51;37.90;;
69620;Laerm;57654;51.434;5.984;2022-12-10T00:12:24;33.00;30.11;37.31;;
69620;Laerm;57654;51.434;5.984;2022-12-10T00:12:34;33.24;29.96;40.36;;
69620;Laerm;57654;51.434;5.984;2022-12-10T00:12:44;32.86;30.23;37.01;;
69620;Laerm;57654;51.434;5.984;2022-12-10T00:12:54;32.80;30.25;39.92;;
69620;Laerm;57654;51.434;5.984;2022-12-10T00:13:05;33.38;30.36;44.94;;
69620;Laerm;57654;51.434;5.984;2022-12-10T00:13:15;33.00;29.87;37.84;;
69620;Laerm;57654;51.434;5.984;2022-12-10T00:13:25;33.00;29.80;44.17;;
69620;Laerm;57654;51.434;5.984;2022-12-10T00:13:36;32.88;29.68;41.97;;
69620;Laerm;57654;51.434;5.984;2022-12-10T00:13:46;32.45;30.01;36.77;;
69620;Laerm;57654;51.434;5.984;2022-12-10T00:13:57;32.65;29.90;39.82;;
69620;Laerm;57654;51.434;5.984;2022-12-10T00:14:08;32.76;29.77;39.09;;
69620;Laerm;57654;51.434;5.984;2022-12-10T00:14:18;32.89;29.70;37.66;;
69620;Laerm;57654;51.434;5.984;2022-12-10T00:14:28;33.45;30.14;38.50;;
69620;Laerm;57654;51.434;5.984;2022-12-10T00:14:39;33.16;30.26;38.06;;
69620;Laerm;57654;51.434;5.984;2022-12-10T00:14:49;38.66;30.29;49.31;;
69620;Laerm;57654;51.434;5.984;2022-12-10T00:14:59;39.41;30.30;52.67;;
69620;Laerm;57654;51.434;5.984;2022-12-10T00:15:10;39.78;30.23;53.63;;
69620;Laerm;57654;51.434;5.984;2022-12-10T00:15:20;39.59;29.96;53.76;;
69620;Laerm;57654;51.434;5.984;2022-12-10T00:15:30;40.19;30.59;53.62;;
69620;Laerm;57654;51.434;5.984;2022-12-10T00:15:43;39.37;30.30;53.04;;
69620;Laerm;57654;51.434;5.984;2022-12-10T00:15:54;39.97;29.99;52.14;;
69620;Laerm;57654;51.434;5.984;2022-12-10T00:16:05;39.64;29.77;51.89;;
69620;Laerm;57654;51.434;5.984;2022-12-10T00:16:16;39.43;30.43;52.04;;
69620;Laerm;57654;51.434;5.984;2022-12-10T00:16:27;39.86;30.36;51.51;;
69620;Laerm;57654;51.434;5.984;2022-12-10T00:16:38;38.72;30.64;51.12;;
69620;Laerm;57654;51.434;5.984;2022-12-10T00:16:49;35.50;30.16;48.61;;
69620;Laerm;57654;51.434;5.984;2022-12-10T00:16:59;40.13;30.57;52.92;;
69620;Laerm;57654;51.434;5.984;2022-12-10T00:17:09;36.65;30.03;51.68;;
69620;Laerm;57654;51.434;5.984;2022-12-10T00:17:20;38.44;29.92;49.95;;
69620;Laerm;57654;51.434;5.984;2022-12-10T00:17:30;39.93;29.79;51.79;;
69620;Laerm;57654;51.434;5.984;2022-12-10T00:17:40;32.66;29.96;38.90;;
69620;Laerm;57654;51.434;5.984;2022-12-10T00:17:50;40.09;30.17;52.04;;
69620;Laerm;57654;51.434;5.984;2022-12-10T00:18:01;32.75;29.60;39.25;;
69620;Laerm;57654;51.434;5.984;2022-12-10T00:18:11;32.79;29.76;39.14;;
69620;Laerm;57654;51.434;5.984;2022-12-10T00:18:21;32.93;30.19;39.74;;
69620;Laerm;57654;51.434;5.984;2022-12-10T00:18:32;33.02;29.92;40.11;;
69620;Laerm;57654;51.434;5.984;2022-12-10T00:18:43;32.81;30.00;38.62;;
69620;Laerm;57654;51.434;5.984;2022-12-10T00:18:54;33.02;30.08;38.05;;
69620;Laerm;57654;51.434;5.984;2022-12-10T00:19:04;33.20;30.20;40.87;;
69620;Laerm;57654;51.434;5.984;2022-12-10T00:19:15;33.02;29.97;39.10;;
69620;Laerm;57654;51.434;5.984;2022-12-10T00:19:25;33.05;29.70;40.19;;
69620;Laerm;57654;51.434;5.984;2022-12-10T00:19:35;32.68;29.78;36.88;;
69620;Laerm;57654;51.434;5.984;2022-12-10T00:19:45;33.18;30.31;40.51;;
69620;Laerm;57654;51.434;5.984;2022-12-10T00:19:56;33.11;30.47;39.23;;
69620;Laerm;57654;51.434;5.984;2022-12-10T00:20:06;33.05;29.88;38.67;;
69620;Laerm;57654;51.434;5.984;2022-12-10T00:20:16;33.56;30.43;39.79;;
69620;Laerm;57654;51.434;5.984;2022-12-10T00:20:27;32.90;30.20;37.64;;
69620;Laerm;57654;51.434;5.984;2022-12-10T00:20:37;33.20;30.28;38.85;;
69620;Laerm;57654;51.434;5.984;2022-12-10T00:20:47;33.47;29.96;43.14;;
69620;Laerm;57654;51.434;5.984;2022-12-10T00:20:57;32.75;30.11;41.16;;
69620;Laerm;57654;51.434;5.984;2022-12-10T00:21:12;32.99;29.56;39.83;;
69620;Laerm;57654;51.434;5.984;2022-12-10T00:21:24;33.04;29.94;45.37;;
69620;Laerm;57654;51.434;5.984;2022-12-10T00:21:35;32.46;29.80;38.73;;
69620;Laerm;57654;51.434;5.984;2022-12-10T00:21:45;32.68;29.65;36.90;;
69620;Laerm;57654;51.434;5.984;2022-12-10T00:21:56;33.06;30.02;41.93;;
69620;Laerm;57654;51.434;5.984;2022-12-10T00:22:06;32.91;30.09;38.33;;
69620;Laerm;57654;51.434;5.984;2022-12-10T00:22:16;32.84;30.26;37.73;;
69620;Laerm;57654;51.434;5.984;2022-12-10T00:22:26;32.80;29.80;37.19;;
69620;Laerm;57654;51.434;5.984;2022-12-10T00:22:37;33.63;29.97;47.79;;
69620;Laerm;57654;51.434;5.984;2022-12-10T00:22:47;33.01;30.10;40.34;;
69620;Laerm;57654;51.434;5.984;2022-12-10T00:22:57;32.90;29.80;39.70;;
69620;Laerm;57654;51.434;5.984;2022-12-10T00:23:07;32.99;29.85;42.46;;
69620;Laerm;57654;51.434;5.984;2022-12-10T00:23:18;32.67;29.81;39.83;;
69620;Laerm;57654;51.434;5.984;2022-12-10T00:23:28;32.92;29.68;40.49;;
69620;Laerm;57654;51.434;5.984;2022-12-10T00:23:41;33.01;29.88;40.62;;
69620;Laerm;57654;51.434;5.984;2022-12-10T00:23:52;33.23;29.66;40.46;;
69620;Laerm;57654;51.434;5.984;2022-12-10T00:24:02;32.94;29.47;39.59;;
69620;Laerm;57654;51.434;5.984;2022-12-10T00:24:13;32.83;30.00;38.55;;
69620;Laerm;57654;51.434;5.984;2022-12-10T00:24:23;32.79;29.52;40.41;;
69620;Laerm;57654;51.434;5.984;2022-12-10T00:24:33;32.79;29.71;41.82;;
69620;Laerm;57654;51.434;5.984;2022-12-10T00:24:44;32.66;29.39;37.78;;
69620;Laerm;57654;51.434;5.984;2022-12-10T00:24:54;32.94;30.25;38.88;;
69620;Laerm;57654;51.434;5.984;2022-12-10T00:25:04;32.52;29.90;38.97;;
69620;Laerm;57654;51.434;5.984;2022-12-10T00:25:15;32.30;29.70;36.48;;
69620;Laerm;57654;51.434;5.984;2022-12-10T00:25:25;32.50;29.32;40.45;;
69620;Laerm;57654;51.434;5.984;2022-12-10T00:25:35;32.34;29.55;37.55;;
69620;Laerm;57654;51.434;5.984;2022-12-10T00:25:45;33.20;29.75;40.94;;
69620;Laerm;57654;51.434;5.984;2022-12-10T00:26:00;32.58;29.97;38.95;;
69620;Laerm;57654;51.434;5.984;2022-12-10T00:26:18;33.02;30.35;38.86;;
69620;Laerm;57654;51.434;5.984;2022-12-10T00:26:32;33.06;29.61;40.65;;
69620;Laerm;57654;51.434;5.984;2022-12-10T00:26:43;33.36;30.15;39.17;;
69620;Laerm;57654;51.434;5.984;2022-12-10T00:26:55;32.68;29.77;38.47;;
69620;Laerm;57654;51.434;5.984;2022-12-10T00:27:06;32.55;29.06;38.10;;
69620;Laerm;57654;51.434;5.984;2022-12-10T00:27:16;32.71;29.54;38.68;;
69620;Laerm;57654;51.434;5.984;2022-12-10T00:27:26;32.55;29.87;37.07;;
69620;Laerm;57654;51.434;5.984;2022-12-10T00:27:36;32.66;29.46;41.31;;
69620;Laerm;57654;51.434;5.984;2022-12-10T00:27:47;32.62;29.90;38.20;;
69620;Laerm;57654;51.434;5.984;2022-12-10T00:27:57;32.33;29.08;36.80;;
69620;Laerm;57654;51.434;5.984;2022-12-10T00:28:07;32.64;29.77;38.95;;
69620;Laerm;57654;51.434;5.984;2022-12-10T00:28:18;32.59;29.22;40.55;;
69620;Laerm;57654;51.434;5.984;2022-12-10T00:28:28;32.72;29.58;39.63;;
69620;Laerm;57654;51.434;5.984;2022-12-10T00:28:38;32.49;29.84;38.89;;
69620;Laerm;57654;51.434;5.984;2022-12-10T00:28:49;32.79;29.46;40.01;;
69620;Laerm;57654;51.434;5.984;2022-12-10T00:29:01;32.47;29.50;37.68;;
69620;Laerm;57654;51.434;5.984;2022-12-10T00:29:11;33.47;29.62;47.65;;
69620;Laerm;57654;51.434;5.984;2022-12-10T00:29:22;32.61;29.39;40.43;;
69620;Laerm;57654;51.434;5.984;2022-12-10T00:29:32;32.58;29.26;42.88;;
69620;Laerm;57654;51.434;5.984;2022-12-10T00:29:42;32.52;29.68;40.24;;
69620;Laerm;57654;51.434;5.984;2022-12-10T00:29:53;32.67;29.55;40.44;;
69620;Laerm;57654;51.434;5.984;2022-12-10T00:30:03;33.23;29.64;44.97;;
69620;Laerm;57654;51.434;5.984;2022-12-10T00:30:13;32.73;29.76;39.53;;
69620;Laerm;57654;51.434;5.984;2022-12-10T00:30:24;32.95;29.68;40.40;;
69620;Laerm;57654;51.434;5.984;2022-12-10T00:30:34;32.58;29.31;39.55;;
69620;Laerm;57654;51.434;5.984;2022-12-10T00:30:44;32.79;29.52;37.92;;
69620;Laerm;57654;51.434;5.984;2022-12-10T00:30:54;32.80;29.43;41.12;;
69620;Laerm;57654;51.434;5.984;2022-12-10T00:31:24;32.54;29.85;37.70;;
69620;Laerm;57654;51.434;5.984;2022-12-10T00:31:35;33.01;29.44;40.18;;
69620;Laerm;57654;51.434;5.984;2022-12-10T00:31:46;32.64;29.58;38.16;;
69620;Laerm;57654;51.434;5.984;2022-12-10T00:31:56;32.71;29.24;39.42;;
69620;Laerm;57654;51.434;5.984;2022-12-10T00:32:06;33.84;29.40;42.49;;
69620;Laerm;57654;51.434;5.984;2022-12-10T00:32:16;32.65;29.74;38.89;;
69620;Laerm;57654;51.434;5.984;2022-12-10T00:32:27;32.89;29.41;39.09;;
69620;Laerm;57654;51.434;5.984;2022-12-10T00:32:37;32.85;29.83;39.38;;
69620;Laerm;57654;51.434;5.984;2022-12-10T00:32:47;32.75;29.62;39.16;;
69620;Laerm;57654;51.434;5.984;2022-12-10T00:32:57;32.67;30.09;41.07;;
69620;Laerm;57654;51.434;5.984;2022-12-10T00:33:08;32.61;29.69;40.20;;
69620;Laerm;57654;51.434;5.984;2022-12-10T00:33:18;32.50;29.56;39.73;;
69620;Laerm;57654;51.434;5.984;2022-12-10T00:33:28;32.82;29.57;41.24;;
69620;Laerm;57654;51.434;5.984;2022-12-10T00:33:39;32.50;29.83;38.18;;
69620;Laerm;57654;51.434;5.984;2022-12-10T00:33:49;33.04;29.79;39.17;;
69620;Laerm;57654;51.434;5.984;2022-12-10T00:34:01;32.58;29.50;38.81;;
69620;Laerm;57654;51.434;5.984;2022-12-10T00:34:12;32.70;29.41;37.39;;
69620;Laerm;57654;51.434;5.984;2022-12-10T00:34:22;32.86;29.65;40.27;;
69620;Laerm;57654;51.434;5.984;2022-12-10T00:34:32;33.10;29.63;39.60;;
69620;Laerm;57654;51.434;5.984;2022-12-10T00:34:42;34.54;29.67;52.81;;
69620;Laerm;57654;51.434;5.984;2022-12-10T00:34:53;32.82;29.72;40.29;;
69620;Laerm;57654;51.434;5.984;2022-12-10T00:35:03;32.68;29.61;38.28;;
69620;Laerm;57654;51.434;5.984;2022-12-10T00:35:13;33.09;29.93;39.01;;
69620;Laerm;57654;51.434;5.984;2022-12-10T00:35:24;32.86;29.38;39.52;;
69620;Laerm;57654;51.434;5.984;2022-12-10T00:35:37;32.42;29.44;36.36;;
69620;Laerm;57654;51.434;5.984;2022-12-10T00:35:47;32.74;29.67;38.44;;
69620;Laerm;57654;51.434;5.984;2022-12-10T00:36:01;32.66;29.81;37.64;;
69620;Laerm;57654;51.434;5.984;2022-12-10T00:36:12;33.12;29.86;39.69;;
69620;Laerm;57654;51.434;5.984;2022-12-10T00:36:27;33.01;29.71;38.19;;
69620;Laerm;57654;51.434;5.984;2022-12-10T00:36:39;32.68;29.60;39.53;;
69620;Laerm;57654;51.434;5.984;2022-12-10T00:36:50;32.93;29.52;39.09;;
69620;Laerm;57654;51.434;5.984;2022-12-10T00:37:00;32.78;30.04;39.09;;
69620;Laerm;57654;51.434;5.984;2022-12-10T00:37:10;33.13;29.59;40.19;;
69620;Laerm;57654;51.434;5.984;2022-12-10T00:37:20;33.09;29.85;44.67;;
69620;Laerm;57654;51.434;5.984;2022-12-10T00:37:32;32.81;29.55;37.16;;
69620;Laerm;57654;51.434;5.984;2022-12-10T00:37:42;32.79;29.89;37.96;;
69620;Laerm;57654;51.434;5.984;2022-12-10T00:37:52;33.34;29.77;38.03;;
69620;Laerm;57654;51.434;5.984;2022-12-10T00:38:03;33.27;29.95;42.67;;
69620;Laerm;57654;51.434;5.984;2022-12-10T00:38:13;32.88;29.91;37.24;;
69620;Laerm;57654;51.434;5.984;2022-12-10T00:38:23;33.46;30.14;42.57;;
69620;Laerm;57654;51.434;5.984;2022-12-10T00:38:34;32.83;29.89;38.59;;
69620;Laerm;57654;51.434;5.984;2022-12-10T00:38:45;32.92;30.02;40.60;;
69620;Laerm;57654;51.434;5.984;2022-12-10T00:38:55;32.94;30.22;38.90;;
69620;Laerm;57654;51.434;5.984;2022-12-10T00:39:05;32.81;30.09;38.39;;
69620;Laerm;57654;51.434;5.984;2022-12-10T00:39:17;33.18;29.92;39.79;;
69620;Laerm;57654;51.434;5.984;2022-12-10T00:39:27;32.83;30.03;40.02;;
69620;Laerm;57654;51.434;5.984;2022-12-10T00:39:38;32.89;30.08;39.99;;
69620;Laerm;57654;51.434;5.984;2022-12-10T00:39:49;33.32;29.94;39.87;;
69620;Laerm;57654;51.434;5.984;2022-12-10T00:39:59;32.89;29.75;41.96;;
69620;Laerm;57654;51.434;5.984;2022-12-10T00:40:09;33.21;29.88;38.66;;
69620;Laerm;57654;51.434;5.984;2022-12-10T00:40:21;32.97;29.72;38.65;;
69620;Laerm;57654;51.434;5.984;2022-12-10T00:40:32;33.03;30.12;38.67;;
69620;Laerm;57654;51.434;5.984;2022-12-10T00:40:42;33.33;30.56;39.09;;
69620;Laerm;57654;51.434;5.984;2022-12-10T00:40:52;33.54;30.28;37.69;;
69620;Laerm;57654;51.434;5.984;2022-12-10T00:41:03;33.59;30.75;38.75;;
69620;Laerm;57654;51.434;5.984;2022-12-10T00:41:14;33.45;30.43;40.62;;
69620;Laerm;57654;51.434;5.984;2022-12-10T00:41:24;33.02;30.00;39.72;;
69620;Laerm;57654;51.434;5.984;2022-12-10T00:41:34;33.78;30.90;42.76;;
69620;Laerm;57654;51.434;5.984;2022-12-10T00:41:45;36.45;32.29;39.76;;
69620;Laerm;57654;51.434;5.984;2022-12-10T00:41:55;34.56;30.31;42.94;;
69620;Laerm;57654;51.434;5.984;2022-12-10T00:42:05;32.65;29.54;38.34;;
69620;Laerm;57654;51.434;5.984;2022-12-10T00:42:16;33.15;30.18;39.29;;
69620;Laerm;57654;51.434;5.984;2022-12-10T00:42:26;33.18;30.10;39.58;;
69620;Laerm;57654;51.434;5.984;2022-12-10T00:42:36;32.59;29.57;37.46;;
69620;Laerm;57654;51.434;5.984;2022-12-10T00:42:46;32.65;29.58;39.51;;
69620;Laerm;57654;51.434;5.984;2022-12-10T00:42:57;32.59;30.01;36.35;;
69620;Laerm;57654;51.434;5.984;2022-12-10T00:43:07;32.75;29.55;39.43;;
69620;Laerm;57654;51.434;5.984;2022-12-10T00:43:17;33.22;30.35;38.65;;
69620;Laerm;57654;51.434;5.984;2022-12-10T00:43:27;32.73;29.99;36.49;;
69620;Laerm;57654;51.434;5.984;2022-12-10T00:43:37;32.91;30.05;38.29;;
69620;Laerm;57654;51.434;5.984;2022-12-10T00:43:48;33.06;30.11;42.68;;
69620;Laerm;57654;51.434;5.984;2022-12-10T00:43:58;32.66;29.05;39.04;;
69620;Laerm;57654;51.434;5.984;2022-12-10T00:44:09;32.54;29.30;37.59;;
69620;Laerm;57654;51.434;5.984;2022-12-10T00:44:19;32.73;30.03;38.12;;
69620;Laerm;57654;51.434;5.984;2022-12-10T00:44:29;32.71;29.98;38.44;;
69620;Laerm;57654;51.434;5.984;2022-12-10T00:44:39;32.60;29.24;40.55;;
69620;Laerm;57654;51.434;5.984;2022-12-10T00:44:50;32.69;29.52;41.79;;
69620;Laerm;57654;51.434;5.984;2022-12-10T00:45:00;32.41;29.67;38.24;;
69620;Laerm;57654;51.434;5.984;2022-12-10T00:45:10;32.76;29.78;39.91;;
69620;Laerm;57654;51.434;5.984;2022-12-10T00:45:21;33.01;29.49;41.71;;
69620;Laerm;57654;51.434;5.984;2022-12-10T00:45:31;32.94;29.37;37.81;;
69620;Laerm;57654;51.434;5.984;2022-12-10T00:45:41;32.67;29.79;37.78;;
69620;Laerm;57654;51.434;5.984;2022-12-10T00:45:52;33.20;30.04;43.66;;
69620;Laerm;57654;51.434;5.984;2022-12-10T00:46:02;32.70;29.73;37.97;;
69620;Laerm;57654;51.434;5.984;2022-12-10T00:46:13;32.76;29.99;38.73;;
69620;Laerm;57654;51.434;5.984;2022-12-10T00:46:24;32.73;29.51;39.98;;
69620;Laerm;57654;51.434;5.984;2022-12-10T00:46:34;32.98;29.69;41.13;;
69620;Laerm;57654;51.434;5.984;2022-12-10T00:46:44;32.83;29.85;41.84;;
69620;Laerm;57654;51.434;5.984;2022-12-10T00:46:55;32.87;29.89;37.37;;
69620;Laerm;57654;51.434;5.984;2022-12-10T00:47:05;32.89;29.59;39.47;;
69620;Laerm;57654;51.434;5.984;2022-12-10T00:47:15;33.27;30.02;39.97;;
69620;Laerm;57654;51.434;5.984;2022-12-10T00:47:25;32.73;30.02;38.61;;
69620;Laerm;57654;51.434;5.984;2022-12-10T00:47:36;32.87;30.06;41.97;;
69620;Laerm;57654;51.434;5.984;2022-12-10T00:47:46;33.00;30.12;38.61;;
69620;Laerm;57654;51.434;5.984;2022-12-10T00:47:56;32.58;29.54;38.97;;
69620;Laerm;57654;51.434;5.984;2022-12-10T00:48:06;32.90;30.08;39.33;;
69620;Laerm;57654;51.434;5.984;2022-12-10T00:48:17;39.13;29.50;61.24;;
69620;Laerm;57654;51.434;5.984;2022-12-10T00:48:27;32.38;29.69;39.15;;
69620;Laerm;57654;51.434;5.984;2022-12-10T00:48:37;32.31;29.44;37.84;;
69620;Laerm;57654;51.434;5.984;2022-12-10T00:48:47;32.40;29.78;36.49;;
69620;Laerm;57654;51.434;5.984;2022-12-10T00:48:58;32.81;29.32;40.83;;
69620;Laerm;57654;51.434;5.984;2022-12-10T00:49:09;32.70;29.49;37.78;;
69620;Laerm;57654;51.434;5.984;2022-12-10T00:49:19;32.59;29.31;37.91;;
69620;Laerm;57654;51.434;5.984;2022-12-10T00:49:33;32.66;29.38;41.11;;
69620;Laerm;57654;51.434;5.984;2022-12-10T00:49:43;33.01;29.43;41.67;;
69620;Laerm;57654;51.434;5.984;2022-12-10T00:49:53;32.79;29.78;37.45;;
69620;Laerm;57654;51.434;5.984;2022-12-10T00:50:03;32.47;29.38;39.17;;
69620;Laerm;57654;51.434;5.984;2022-12-10T00:50:14;32.70;29.73;40.52;;
69620;Laerm;57654;51.434;5.984;2022-12-10T00:50:24;32.49;29.85;37.21;;
69620;Laerm;57654;51.434;5.984;2022-12-10T00:50:34;32.67;29.68;40.37;;
69620;Laerm;57654;51.434;5.984;2022-12-10T00:50:53;32.81;29.52;37.97;;
69620;Laerm;57654;51.434;5.984;2022-12-10T00:51:05;32.86;30.01;39.76;;
69620;Laerm;57654;51.434;5.984;2022-12-10T00:51:17;32.71;29.30;40.45;;
69620;Laerm;57654;51.434;5.984;2022-12-10T00:51:28;32.58;29.52;38.12;;
69620;Laerm;57654;51.434;5.984;2022-12-10T00:51:38;32.26;29.71;38.41;;
69620;Laerm;57654;51.434;5.984;2022-12-10T00:51:49;33.09;29.79;40.96;;
69620;Laerm;57654;51.434;5.984;2022-12-10T00:51:59;32.61;29.50;39.74;;
69620;Laerm;57654;51.434;5.984;2022-12-10T00:52:09;32.71;29.67;43.04;;
69620;Laerm;57654;51.434;5.984;2022-12-10T00:52:19;32.72;29.40;39.33;;
69620;Laerm;57654;51.434;5.984;2022-12-10T00:52:30;32.35;29.29;38.26;;
69620;Laerm;57654;51.434;5.984;2022-12-10T00:52:40;32.36;29.59;38.53;;
69620;Laerm;57654;51.434;5.984;2022-12-10T00:52:50;32.61;29.68;40.26;;
69620;Laerm;57654;51.434;5.984;2022-12-10T00:53:00;32.97;29.60;41.32;;
69620;Laerm;57654;51.434;5.984;2022-12-10T00:53:11;32.87;29.56;39.79;;
69620;Laerm;57654;51.434;5.984;2022-12-10T00:53:21;32.80;29.83;40.82;;
69620;Laerm;57654;51.434;5.984;2022-12-10T00:53:32;32.75;29.46;39.90;;
69620;Laerm;57654;51.434;5.984;2022-12-10T00:53:43;32.85;29.79;39.99;;
69620;Laerm;57654;51.434;5.984;2022-12-10T00:53:54;32.89;29.97;37.82;;
69620;Laerm;57654;51.434;5.984;2022-12-10T00:54:05;32.72;29.62;39.07;;
69620;Laerm;57654;51.434;5.984;2022-12-10T00:54:15;32.99;29.69;38.44;;
69620;Laerm;57654;51.434;5.984;2022-12-10T00:54:26;32.65;29.64;37.98;;
69620;Laerm;57654;51.434;5.984;2022-12-10T00:54:36;32.66;29.75;38.56;;
69620;Laerm;57654;51.434;5.984;2022-12-10T00:54:46;32.73;29.67;38.93;;
69620;Laerm;57654;51.434;5.984;2022-12-10T00:54:56;33.05;30.06;40.12;;
69620;Laerm;57654;51.434;5.984;2022-12-10T00:55:07;32.88;29.81;38.83;;
69620;Laerm;57654;51.434;5.984;2022-12-10T00:55:17;32.64;29.58;42.79;;
69620;Laerm;57654;51.434;5.984;2022-12-10T00:55:27;33.27;29.43;47.99;;
69620;Laerm;57654;51.434;5.984;2022-12-10T00:55:38;33.37;29.97;39.06;;
69620;Laerm;57654;51.434;5.984;2022-12-10T00:55:48;33.68;30.54;38.45;;
69620;Laerm;57654;51.434;5.984;2022-12-10T00:55:58;34.50;31.07;40.01;;
69620;Laerm;57654;51.434;5.984;2022-12-10T00:56:09;34.14;30.58;39.38;;
69620;Laerm;57654;51.434;5.984;2022-12-10T00:56:23;33.94;30.69;40.97;;
69620;Laerm;57654;51.434;5.984;2022-12-10T00:56:34;34.11;30.08;40.54;;
69620;Laerm;57654;51.434;5.984;2022-12-10T00:56:44;34.61;31.82;38.57;;
69620;Laerm;57654;51.434;5.984;2022-12-10T00:56:54;34.30;31.10;39.08;;
69620;Laerm;57654;51.434;5.984;2022-12-10T00:57:05;33.94;30.96;41.56;;
69620;Laerm;57654;51.434;5.984;2022-12-10T00:57:15;33.89;30.26;40.90;;
69620;Laerm;57654;51.434;5.984;2022-12-10T00:57:26;33.53;30.65;39.57;;
69620;Laerm;57654;51.434;5.984;2022-12-10T00:57:36;33.19;29.69;41.07;;
69620;Laerm;57654;51.434;5.984;2022-12-10T00:57:46;33.14;30.31;41.64;;
69620;Laerm;57654;51.434;5.984;2022-12-10T00:57:56;32.88;29.98;41.14;;
69620;Laerm;57654;51.434;5.984;2022-12-10T00:58:07;33.09;29.94;38.79;;
69620;Laerm;57654;51.434;5.984;2022-12-10T00:58:17;32.91;29.90;38.55;;
69620;Laerm;57654;51.434;5.984;2022-12-10T00:58:28;32.45;29.62;36.84;;
69620;Laerm;57654;51.434;5.984;2022-12-10T00:58:38;32.50;29.54;39.14;;
69620;Laerm;57654;51.434;5.984;2022-12-10T00:58:49;32.57;29.72;37.75;;
69620;Laerm;57654;51.434;5.984;2022-12-10T00:59:00;32.79;29.51;37.44;;
69620;Laerm;57654;51.434;5.984;2022-12-10T00:59:11;32.53;29.66;40.71;;
69620;Laerm;57654;51.434;5.984;2022-12-10T00:59:21;32.63;29.40;40.76;;
69620;Laerm;57654;51.434;5.984;2022-12-10T00:59:32;32.68;29.72;38.22;;
69620;Laerm;57654;51.434;5.984;2022-12-10T00:59:42;32.87;29.89;41.85;;
69620;Laerm;57654;51.434;5.984;2022-12-10T00:59:52;32.30;28.83;38.30;;